createdAt,value
2022-11-05T00:00:34.648Z,16.30
2022-11-05T00:03:20.187Z,15.93
2022-11-05T00:06:07.901Z,16.17
2022-11-05T00:08:53.422Z,16.50
2022-11-05T00:11:40.314Z,15.57
2022-11-05T00:14:25.990Z,17.25
2022-11-05T00:16:52.842Z,16.67
2022-11-05T00:19:19.602Z,15.30
2022-11-05T00:22:04.718Z,15.73
2022-11-05T00:24:50.057Z,16.33
2022-11-05T00:27:16.839Z,17.25
2022-11-05T00:29:43.743Z,15.85
2022-11-05T00:32:10.565Z,16.35
2022-11-05T00:34:37.258Z,18.30
2022-11-05T00:37:04.019Z,15.63
2022-11-05T00:39:30.776Z,15.63
2022-11-05T00:42:16.209Z,15.30
2022-11-05T00:45:01.090Z,14.70
2022-11-05T00:47:54.772Z,15.07
2022-11-05T00:50:22.937Z,14.68
2022-11-05T00:53:00.875Z,14.52
2022-11-05T00:55:40.517Z,14.57
2022-11-05T00:58:13.159Z,14.80
2022-11-05T01:00:43.307Z,14.27
2022-11-05T01:03:13.733Z,13.95
2022-11-05T01:05:46.521Z,14.68
2022-11-05T01:08:15.446Z,13.85
2022-11-05T01:10:53.714Z,14.38
2022-11-05T01:13:23.478Z,14.15
2022-11-05T01:15:50.968Z,14.75
2022-11-05T01:18:19.246Z,15.32
2022-11-05T01:20:46.441Z,16.08
2022-11-05T01:23:14.008Z,15.43
2022-11-05T01:25:42.701Z,15.02
2022-11-05T01:28:09.986Z,16.13
2022-11-05T01:30:37.414Z,16.50
2022-11-05T01:33:04.285Z,16.00
2022-11-05T01:35:30.988Z,17.23
2022-11-05T01:37:57.746Z,15.10
2022-11-05T01:40:25.507Z,15.52
2022-11-05T01:42:52.229Z,16.08
2022-11-05T01:45:27.767Z,16.67
2022-11-05T01:48:06.783Z,16.20
2022-11-05T01:50:59.905Z,16.30
2022-11-05T01:53:38.924Z,16.52
2022-11-05T01:56:13.690Z,17.30
2022-11-05T01:58:52.858Z,17.50
2022-11-05T02:01:19.819Z,18.20
2022-11-05T02:03:50.543Z,16.85
2022-11-05T02:06:18.728Z,17.45
2022-11-05T02:09:08.653Z,15.63
2022-11-05T02:11:35.483Z,16.45
2022-11-05T02:14:02.367Z,17.55
2022-11-05T02:16:44.864Z,17.40
2022-11-05T02:19:38.863Z,17.83
2022-11-05T02:22:42.042Z,16.52
2022-11-05T02:25:34.800Z,17.38
2022-11-05T02:28:20.431Z,17.08
2022-11-05T02:30:53.032Z,17.42
2022-11-05T02:33:38.238Z,17.33
2022-11-05T02:36:14.105Z,17.95
2022-11-05T02:38:43.378Z,17.73
2022-11-05T02:41:40.221Z,18.70
2022-11-05T02:44:22.941Z,17.75
2022-11-05T02:46:58.328Z,18.23
2022-11-05T02:49:55.412Z,16.45
2022-11-05T02:52:48.513Z,18.73
2022-11-05T02:55:37.744Z,18.52
2022-11-05T02:58:05.631Z,18.92
2022-11-05T03:00:55.002Z,17.10
2022-11-05T03:03:24.825Z,16.92
2022-11-05T03:06:29.243Z,17.33
2022-11-05T03:09:05.066Z,16.90
2022-11-05T03:11:37.745Z,18.20
2022-11-05T03:14:12.472Z,19.00
2022-11-05T03:16:42.375Z,16.48
2022-11-05T03:19:34.872Z,17.40
2022-11-05T03:22:10.908Z,17.38
2022-11-05T03:24:48.937Z,17.60
2022-11-05T03:27:19.879Z,17.55
2022-11-05T03:29:54.127Z,18.52
2022-11-05T03:32:22.494Z,17.45
2022-11-05T03:34:55.916Z,17.60
2022-11-05T03:37:25.582Z,17.30
2022-11-05T03:39:57.498Z,17.80
2022-11-05T03:42:29.138Z,17.35
2022-11-05T03:44:59.891Z,16.15
2022-11-05T03:47:34.338Z,18.00
2022-11-05T03:50:26.244Z,18.38
2022-11-05T03:52:59.764Z,17.92
2022-11-05T03:55:32.487Z,20.70
2022-11-05T03:57:59.884Z,18.38
2022-11-05T04:00:26.782Z,18.58
2022-11-05T04:02:53.590Z,19.10
2022-11-05T04:05:20.391Z,18.85
2022-11-05T04:08:09.941Z,19.67
2022-11-05T04:10:58.468Z,18.10
2022-11-05T04:13:27.522Z,18.58
2022-11-05T04:16:14.129Z,19.40
2022-11-05T04:18:41.897Z,20.08
2022-11-05T04:21:28.708Z,19.52
2022-11-05T04:24:10.833Z,19.88
2022-11-05T04:26:40.567Z,18.75
2022-11-05T04:29:26.784Z,20.63
2022-11-05T04:31:54.139Z,20.65
2022-11-05T04:34:24.619Z,19.70
2022-11-05T04:36:52.472Z,20.77
2022-11-05T04:39:20.257Z,19.73
2022-11-05T04:41:50.611Z,20.02
2022-11-05T04:44:17.602Z,19.52
2022-11-05T04:46:44.362Z,19.92
2022-11-05T04:49:11.080Z,20.30
2022-11-05T04:51:37.782Z,19.42
2022-11-05T04:54:04.535Z,19.48
2022-11-05T04:56:31.428Z,18.75
2022-11-05T04:58:58.130Z,19.60
2022-11-05T05:01:25.669Z,18.75
2022-11-05T05:03:53.979Z,19.73
2022-11-05T05:06:21.862Z,18.65
2022-11-05T05:08:50.287Z,19.08
2022-11-05T05:11:19.480Z,19.35
2022-11-05T05:13:48.090Z,19.20
2022-11-05T05:16:21.762Z,19.33
2022-11-05T05:18:49.320Z,17.35
2022-11-05T05:21:36.683Z,18.40
2022-11-05T05:24:03.877Z,18.98
2022-11-05T05:26:30.690Z,18.05
2022-11-05T05:28:57.481Z,18.38
2022-11-05T05:31:24.848Z,16.77
2022-11-05T05:33:55.221Z,16.98
2022-11-05T05:36:22.825Z,17.75
2022-11-05T05:38:49.956Z,15.95
2022-11-05T05:41:17.182Z,16.45
2022-11-05T05:43:43.988Z,20.55
2022-11-05T05:46:13.148Z,17.17
2022-11-05T05:48:40.540Z,16.30
2022-11-05T05:51:10.579Z,16.98
2022-11-05T05:53:38.038Z,16.60
2022-11-05T05:56:05.663Z,20.45
2022-11-05T05:58:37.863Z,17.88
2022-11-05T06:01:06.969Z,15.70
2022-11-05T06:03:33.866Z,17.60
2022-11-05T06:06:10.674Z,16.25
2022-11-05T06:08:37.330Z,16.38
2022-11-05T06:11:05.415Z,16.38
2022-11-05T06:13:32.646Z,16.45
2022-11-05T06:16:04.641Z,17.02
2022-11-05T06:18:32.208Z,18.25
2022-11-05T06:21:02.924Z,17.27
2022-11-05T06:23:37.760Z,17.55
2022-11-05T06:26:06.905Z,17.77
2022-11-05T06:28:34.391Z,18.27
2022-11-05T06:31:01.141Z,18.45
2022-11-05T06:33:27.903Z,19.33
2022-11-05T06:35:54.831Z,18.52
2022-11-05T06:38:21.559Z,20.02
2022-11-05T06:40:48.237Z,19.40
2022-11-05T06:43:15.111Z,19.13
2022-11-05T06:45:42.220Z,20.58
2022-11-05T06:48:09.288Z,20.85
2022-11-05T06:50:35.959Z,19.30
2022-11-05T06:53:04.380Z,23.55
2022-11-05T06:55:32.273Z,21.35
2022-11-05T06:57:59.100Z,20.60
2022-11-05T07:00:26.075Z,21.15
2022-11-05T07:02:53.167Z,21.63
2022-11-05T07:05:19.923Z,22.58
2022-11-05T07:07:46.666Z,21.92
2022-11-05T07:10:18.316Z,22.45
2022-11-05T07:12:45.074Z,22.25
2022-11-05T07:15:12.530Z,22.45
2022-11-05T07:17:40.020Z,23.23
2022-11-05T07:20:08.521Z,23.70
2022-11-05T07:22:36.263Z,23.45
2022-11-05T07:25:04.069Z,23.55
2022-11-05T07:27:30.813Z,23.55
2022-11-05T07:29:58.402Z,23.95
2022-11-05T07:32:25.193Z,24.70
2022-11-05T07:34:51.848Z,25.20
2022-11-05T07:37:18.566Z,24.80
2022-11-05T07:39:45.324Z,24.48
2022-11-05T07:42:13.504Z,25.65
2022-11-05T07:44:40.561Z,23.90
2022-11-05T07:47:14.939Z,25.45
2022-11-05T07:49:41.643Z,25.30
2022-11-05T07:52:08.302Z,23.98
2022-11-05T07:54:35.019Z,25.10
2022-11-05T07:57:01.730Z,23.90
2022-11-05T07:59:28.422Z,22.77
2022-11-05T08:01:55.213Z,24.23
2022-11-05T08:04:22.093Z,23.95
2022-11-05T08:06:48.743Z,23.95
2022-11-05T08:09:15.472Z,23.23
2022-11-05T08:11:42.137Z,22.52
2022-11-05T08:14:08.797Z,23.30
2022-11-05T08:16:35.471Z,22.05
2022-11-05T08:19:02.234Z,23.98
2022-11-05T08:21:28.928Z,20.70
2022-11-05T08:23:55.600Z,21.70
2022-11-05T08:26:22.367Z,19.35
2022-11-05T08:28:49.248Z,20.83
2022-11-05T08:31:18.029Z,19.30
2022-11-05T08:33:44.813Z,19.73
2022-11-05T08:36:11.594Z,21.02
2022-11-05T08:38:38.381Z,21.05
2022-11-05T08:41:05.385Z,17.58
2022-11-05T08:43:32.113Z,18.38
2022-11-05T08:46:01.437Z,17.40
2022-11-05T08:48:28.661Z,16.10
2022-11-05T08:50:55.408Z,16.17
2022-11-05T08:53:22.269Z,16.25
2022-11-05T08:55:51.169Z,15.18
2022-11-05T08:58:18.544Z,15.20
2022-11-05T09:00:48.095Z,13.48
2022-11-05T09:03:16.061Z,14.60
2022-11-05T09:05:43.072Z,13.80
2022-11-05T09:08:19.366Z,13.02
2022-11-05T09:10:47.293Z,13.15
2022-11-05T09:13:18.903Z,12.70
2022-11-05T09:15:47.729Z,12.10
2022-11-05T09:18:15.121Z,11.18
2022-11-05T09:20:42.430Z,11.60
2022-11-05T09:23:10.899Z,11.10
2022-11-05T09:25:37.797Z,11.27
2022-11-05T09:28:32.264Z,11.13
2022-11-05T09:30:59.306Z,11.65
2022-11-05T09:33:26.595Z,11.75
2022-11-05T09:35:53.508Z,10.52
2022-11-05T09:38:20.467Z,10.88
2022-11-05T09:41:16.032Z,10.90
2022-11-05T09:43:53.418Z,9.95
2022-11-05T09:46:25.451Z,10.15
2022-11-05T09:49:05.299Z,9.85
2022-11-05T09:51:32.746Z,10.23
2022-11-05T09:54:01.325Z,9.40
2022-11-05T09:56:31.164Z,9.20
2022-11-05T09:59:06.766Z,9.57
2022-11-05T10:01:38.188Z,8.93
2022-11-05T10:04:14.326Z,8.35
2022-11-05T10:06:58.952Z,8.90
2022-11-05T10:09:40.455Z,9.00
2022-11-05T10:12:22.277Z,9.57
2022-11-05T10:14:59.291Z,8.98
2022-11-05T10:17:28.415Z,9.23
2022-11-05T10:20:18.966Z,9.55
2022-11-05T10:22:49.527Z,9.23
2022-11-05T10:27:53.150Z,9.07
2022-11-05T10:30:21.525Z,9.23
2022-11-05T10:32:52.171Z,8.55
2022-11-05T10:35:22.613Z,9.70
2022-11-05T10:37:50.806Z,9.43
2022-11-05T10:40:32.577Z,8.80
2022-11-05T10:43:13.202Z,8.55
2022-11-05T10:48:27.879Z,9.43
2022-11-05T10:50:54.888Z,9.45
2022-11-05T10:53:32.526Z,8.73
2022-11-05T10:55:59.330Z,9.13
2022-11-05T10:58:29.018Z,10.95
2022-11-05T11:00:55.776Z,9.38
2022-11-05T11:03:34.616Z,8.27
2022-11-05T11:06:27.040Z,9.30
2022-11-05T11:08:56.827Z,9.18
2022-11-05T11:11:36.715Z,9.00
2022-11-05T11:14:11.546Z,9.05
2022-11-05T11:16:47.261Z,9.48
2022-11-05T11:19:27.976Z,8.70
2022-11-05T11:22:03.852Z,9.35
2022-11-05T11:24:53.831Z,8.30
2022-11-05T11:27:29.969Z,8.18
2022-11-05T11:30:01.803Z,9.15
2022-11-05T11:32:35.373Z,7.85
2022-11-05T11:35:03.317Z,7.57
2022-11-05T11:37:41.999Z,7.80
2022-11-05T11:40:24.403Z,7.95
2022-11-05T11:42:53.676Z,8.32
2022-11-05T11:45:49.374Z,7.88
2022-11-05T11:48:19.161Z,8.25
2022-11-05T11:50:47.815Z,8.60
2022-11-05T11:53:20.759Z,7.97
2022-11-05T11:56:18.018Z,8.68
2022-11-05T11:58:53.708Z,8.30
2022-11-05T12:02:02.092Z,8.93
2022-11-05T12:04:45.922Z,8.60
2022-11-05T12:07:57.901Z,9.25
2022-11-05T12:10:59.021Z,8.77
2022-11-05T12:16:15.093Z,8.68
2022-11-05T12:18:50.431Z,9.73
2022-11-05T12:21:51.264Z,10.57
2022-11-05T12:24:34.602Z,9.68
2022-11-05T12:27:38.929Z,9.55
2022-11-05T12:30:16.147Z,10.32
2022-11-05T12:32:49.396Z,10.15
2022-11-05T12:35:16.331Z,10.52
2022-11-05T12:38:07.046Z,10.68
2022-11-05T12:40:39.173Z,11.07
2022-11-05T12:43:26.087Z,9.73
2022-11-05T12:46:10.054Z,9.68
2022-11-05T12:48:42.517Z,10.90
2022-11-05T12:51:44.569Z,10.30
2022-11-05T12:54:23.273Z,9.50
2022-11-05T12:56:57.427Z,9.32
2022-11-05T12:59:34.834Z,9.45
2022-11-05T13:02:24.180Z,10.27
2022-11-05T13:04:56.404Z,9.65
2022-11-05T13:07:38.897Z,9.00
2022-11-05T13:10:11.253Z,9.60
2022-11-05T13:12:41.171Z,10.15
2022-11-05T13:15:28.076Z,10.57
2022-11-05T13:18:06.534Z,9.90
2022-11-05T13:20:38.465Z,10.35
2022-11-05T13:23:26.089Z,10.15
2022-11-05T13:26:24.844Z,10.60
2022-11-05T13:28:59.777Z,8.93
2022-11-05T13:31:34.860Z,9.38
2022-11-05T13:34:06.267Z,9.32
2022-11-05T13:37:01.452Z,9.77
2022-11-05T13:39:37.602Z,8.43
2022-11-05T13:42:30.285Z,8.75
2022-11-05T13:45:03.198Z,8.60
2022-11-05T13:47:38.799Z,8.70
2022-11-05T13:50:42.649Z,8.20
2022-11-05T13:53:30.534Z,7.78
2022-11-05T13:56:19.302Z,7.82
2022-11-05T13:58:52.176Z,8.10
2022-11-05T14:01:27.730Z,8.60
2022-11-05T14:03:56.605Z,8.27
2022-11-05T14:06:35.573Z,8.75
2022-11-05T14:09:10.643Z,8.05
2022-11-05T14:11:41.077Z,8.38
2022-11-05T14:14:15.985Z,8.07
2022-11-05T14:17:14.071Z,8.13
2022-11-05T14:19:51.560Z,7.50
2022-11-05T14:22:33.517Z,7.57
2022-11-05T14:25:02.083Z,8.40
2022-11-05T14:27:28.774Z,8.70
2022-11-05T14:29:55.942Z,7.80
2022-11-05T14:32:25.565Z,7.47
2022-11-05T14:35:04.027Z,7.57
2022-11-05T14:37:36.980Z,8.63
2022-11-05T14:40:23.832Z,9.85
2022-11-05T14:42:56.986Z,8.20
2022-11-05T14:45:38.839Z,8.00
2022-11-05T14:48:22.695Z,8.25
2022-11-05T14:50:49.737Z,8.73
2022-11-05T14:53:39.055Z,8.63
2022-11-05T14:56:13.562Z,8.32
2022-11-05T14:58:42.805Z,8.23
2022-11-05T15:01:32.367Z,8.13
2022-11-05T15:04:37.357Z,9.55
2022-11-05T15:07:04.248Z,8.40
2022-11-05T15:09:42.761Z,7.68
2022-11-05T15:12:37.262Z,8.18
2022-11-05T15:15:21.535Z,8.35
2022-11-05T15:18:00.532Z,8.40
2022-11-05T15:20:40.180Z,8.57
2022-11-05T15:23:12.695Z,8.33
2022-11-05T15:25:53.464Z,8.23
2022-11-05T15:28:39.777Z,8.75
2022-11-05T15:31:30.322Z,8.05
2022-11-05T15:34:10.311Z,8.10
2022-11-05T15:36:36.970Z,7.88
2022-11-05T15:39:29.408Z,8.15
2022-11-05T15:41:57.900Z,9.40
2022-11-05T15:44:34.904Z,7.82
2022-11-05T15:47:08.792Z,8.05
2022-11-05T15:49:35.687Z,7.60
2022-11-05T15:52:02.431Z,7.65
2022-11-05T15:54:30.812Z,7.53
2022-11-05T15:56:59.459Z,7.55
2022-11-05T15:59:28.311Z,7.65
2022-11-05T16:02:24.302Z,6.70
2022-11-05T16:04:51.727Z,7.43
2022-11-05T16:07:19.150Z,7.60
2022-11-05T16:09:56.074Z,7.72
2022-11-05T16:12:41.278Z,8.13
2022-11-05T16:15:10.993Z,9.00
2022-11-05T16:17:37.673Z,7.05
2022-11-05T16:20:27.505Z,7.88
2022-11-05T16:23:00.361Z,8.18
2022-11-05T16:25:44.256Z,7.65
2022-11-05T16:28:27.448Z,7.05
2022-11-05T16:31:03.778Z,7.65
2022-11-05T16:33:40.436Z,15.27
2022-11-05T16:36:08.301Z,7.95
2022-11-05T16:38:35.145Z,7.70
2022-11-05T16:41:01.919Z,7.85
2022-11-05T16:43:28.904Z,7.45
2022-11-05T16:45:58.408Z,8.27
2022-11-05T16:48:26.578Z,8.32
2022-11-05T16:50:53.499Z,7.95
2022-11-05T16:53:20.464Z,7.88
2022-11-05T16:55:47.465Z,8.05
2022-11-05T16:58:23.439Z,7.78
2022-11-05T17:00:52.494Z,7.43
2022-11-05T17:03:19.565Z,7.45
2022-11-05T17:05:46.985Z,7.57
2022-11-05T17:08:13.992Z,8.02
2022-11-05T17:10:40.991Z,7.93
2022-11-05T17:13:07.712Z,8.20
2022-11-05T17:15:37.617Z,7.45
2022-11-05T17:18:05.532Z,7.07
2022-11-05T17:20:40.794Z,8.48
2022-11-05T17:23:10.726Z,8.20
2022-11-05T17:25:39.239Z,7.60
2022-11-05T17:28:06.468Z,8.82
2022-11-05T17:30:33.431Z,7.72
2022-11-05T17:33:00.374Z,7.70
2022-11-05T17:35:27.423Z,7.57
2022-11-05T17:37:54.150Z,7.75
2022-11-05T17:40:22.615Z,7.65
2022-11-05T17:42:50.519Z,7.82
2022-11-05T17:45:17.438Z,7.78
2022-11-05T17:47:44.952Z,7.75
2022-11-05T17:50:14.695Z,9.93
2022-11-05T17:52:41.783Z,8.85
2022-11-05T17:55:17.434Z,13.95
2022-11-05T17:57:49.371Z,10.70
2022-11-05T18:00:21.784Z,28.65
2022-11-05T18:02:49.621Z,8.02
2022-11-05T18:05:20.767Z,7.35
2022-11-05T18:07:51.246Z,7.22
2022-11-05T18:10:18.018Z,8.15
2022-11-05T18:12:45.022Z,8.13
2022-11-05T18:15:12.768Z,7.75
2022-11-05T18:17:40.117Z,7.18
2022-11-05T18:20:11.707Z,7.93
2022-11-05T18:22:43.285Z,6.93
2022-11-05T18:25:11.746Z,7.65
2022-11-05T18:27:42.945Z,7.25
2022-11-05T18:30:13.939Z,7.68
2022-11-05T18:32:41.297Z,7.70
2022-11-05T18:35:08.436Z,7.35
2022-11-05T18:37:36.589Z,7.28
2022-11-05T18:40:03.528Z,9.25
2022-11-05T18:42:30.289Z,7.85
2022-11-05T18:44:57.085Z,7.70
2022-11-05T18:47:23.844Z,7.95
2022-11-05T18:49:50.542Z,8.27
2022-11-05T18:52:17.519Z,7.55
2022-11-05T18:54:44.322Z,7.25
2022-11-05T18:57:11.099Z,8.10
2022-11-05T18:59:39.502Z,7.68
2022-11-05T19:02:07.867Z,7.97
2022-11-05T19:04:37.759Z,7.20
2022-11-05T19:07:06.010Z,7.95
2022-11-05T19:09:37.534Z,7.88
2022-11-05T19:12:05.793Z,8.60
2022-11-05T19:14:32.823Z,8.57
2022-11-05T19:17:00.166Z,7.75
2022-11-05T19:19:27.560Z,8.10
2022-11-05T19:21:54.486Z,7.72
2022-11-05T19:24:21.173Z,8.00
2022-11-05T19:26:48.541Z,9.10
2022-11-05T19:29:15.416Z,8.23
2022-11-05T19:31:42.339Z,8.05
2022-11-05T19:34:09.142Z,8.90
2022-11-05T19:36:35.945Z,9.30
2022-11-05T19:39:07.346Z,8.60
2022-11-05T19:41:34.438Z,8.48
2022-11-05T19:44:01.879Z,7.88
2022-11-05T19:46:30.198Z,8.10
2022-11-05T19:48:57.600Z,7.95
2022-11-05T19:51:27.552Z,8.40
2022-11-05T19:53:55.680Z,9.73
2022-11-05T19:56:31.913Z,8.85
2022-11-05T19:59:00.245Z,8.05
2022-11-05T20:01:28.563Z,7.60
2022-11-05T20:03:57.015Z,9.02
2022-11-05T20:06:31.888Z,8.95
2022-11-05T20:11:49.787Z,9.73
2022-11-05T20:14:16.684Z,10.52
2022-11-05T20:16:43.656Z,11.70
2022-11-05T20:19:16.753Z,12.55
2022-11-05T20:21:44.365Z,11.52
2022-11-05T20:24:13.295Z,13.05
2022-11-05T20:26:41.206Z,13.77
2022-11-05T20:29:07.897Z,14.35
2022-11-05T20:31:34.666Z,13.32
2022-11-05T20:34:01.347Z,13.80
2022-11-05T20:36:28.194Z,13.15
2022-11-05T20:38:57.923Z,12.68
2022-11-05T20:41:26.252Z,12.20
2022-11-05T20:43:53.573Z,12.23
2022-11-05T20:46:22.406Z,12.55
2022-11-05T20:48:49.784Z,12.55
2022-11-05T20:51:19.390Z,11.25
2022-11-05T20:53:46.767Z,10.63
2022-11-05T20:56:18.898Z,10.68
2022-11-05T20:58:46.004Z,10.38
2022-11-05T21:01:15.348Z,9.45
2022-11-05T21:03:43.074Z,10.93
2022-11-05T21:06:11.118Z,10.07
2022-11-05T21:08:37.806Z,10.38
2022-11-05T21:11:04.771Z,11.00
2022-11-05T21:13:31.586Z,9.43
2022-11-05T21:16:00.160Z,9.18
2022-11-05T21:18:30.282Z,9.27
2022-11-05T21:20:59.758Z,9.40
2022-11-05T21:23:29.308Z,9.77
2022-11-05T21:25:56.111Z,9.18
2022-11-05T21:28:23.407Z,8.55
2022-11-05T21:30:50.129Z,9.02
2022-11-05T21:33:18.308Z,8.95
2022-11-05T21:35:48.004Z,9.10
2022-11-05T21:38:16.642Z,9.00
2022-11-05T21:40:44.114Z,9.18
2022-11-05T21:43:11.294Z,9.15
2022-11-05T21:45:39.852Z,10.48
2022-11-05T21:48:08.135Z,10.05
2022-11-05T21:50:53.998Z,9.85
2022-11-05T21:53:39.290Z,10.82
2022-11-05T21:56:52.107Z,10.02
2022-11-05T21:59:40.147Z,9.50
2022-11-05T22:02:08.564Z,10.02
2022-11-05T22:04:38.312Z,9.57
2022-11-05T22:07:06.497Z,9.23
2022-11-05T22:09:33.623Z,9.82
2022-11-05T22:12:01.180Z,9.38
2022-11-05T22:14:28.534Z,9.88
2022-11-05T22:16:56.146Z,9.30
2022-11-05T22:19:23.463Z,9.25
2022-11-05T22:21:50.443Z,9.50
2022-11-05T22:24:18.413Z,9.18
2022-11-05T22:26:46.057Z,9.88
2022-11-05T22:29:13.016Z,9.85
2022-11-05T22:31:39.844Z,10.10
2022-11-05T22:34:06.952Z,9.88
2022-11-05T22:36:34.780Z,9.60
2022-11-05T22:39:02.119Z,8.52
2022-11-05T22:41:28.944Z,9.40
2022-11-05T22:43:55.894Z,9.25
2022-11-05T22:46:25.120Z,8.65
2022-11-05T22:48:52.654Z,9.50
2022-11-05T22:51:22.286Z,9.77
2022-11-05T22:53:49.580Z,9.27
2022-11-05T22:56:19.088Z,9.30
2022-11-05T22:58:45.879Z,9.52
2022-11-05T23:01:13.621Z,8.98
2022-11-05T23:03:41.898Z,8.70
2022-11-05T23:06:42.633Z,9.27
2022-11-05T23:09:37.445Z,9.15
2022-11-05T23:12:06.932Z,8.32
2022-11-05T23:14:35.498Z,9.07
2022-11-05T23:17:20.734Z,9.13
2022-11-05T23:20:06.113Z,9.00
2022-11-05T23:22:51.766Z,9.25
2022-11-05T23:25:23.104Z,9.68
2022-11-05T23:27:51.848Z,9.00
2022-11-05T23:30:21.630Z,9.90
2022-11-05T23:32:49.330Z,9.05
2022-11-05T23:35:16.945Z,8.35
2022-11-05T23:38:02.331Z,8.43
2022-11-05T23:40:51.722Z,8.60
2022-11-05T23:43:36.992Z,8.80
2022-11-05T23:46:29.965Z,9.15
2022-11-05T23:48:56.704Z,8.63
2022-11-05T23:51:23.962Z,8.93
2022-11-05T23:53:50.620Z,9.43
2022-11-05T23:56:17.568Z,9.20
2022-11-05T23:58:44.348Z,9.02
